createdAt,value
2024-04-15T00:00:09.074Z,42.18
2024-04-15T00:05:20.011Z,42.16
2024-04-15T00:10:22.124Z,42.20
2024-04-15T00:15:23.989Z,42.52
2024-04-15T00:20:28.185Z,42.40
2024-04-15T00:25:30.054Z,42.66
2024-04-15T00:30:34.213Z,42.88
2024-04-15T00:35:37.082Z,42.68
2024-04-15T00:40:38.879Z,42.60
2024-04-15T00:45:40.792Z,42.60
2024-04-15T00:50:46.342Z,42.92
2024-04-15T00:55:52.855Z,43.17
2024-04-15T01:00:55.853Z,43.52
2024-04-15T01:05:57.996Z,43.59
2024-04-15T01:11:01.327Z,43.25
2024-04-15T01:16:03.764Z,43.21
2024-04-15T01:21:06.260Z,43.03
2024-04-15T01:26:08.151Z,43.22
2024-04-15T01:31:10.051Z,43.72
2024-04-15T01:36:11.875Z,44.54
2024-04-15T01:41:13.690Z,45.02
2024-04-15T01:46:15.611Z,45.10
2024-04-15T01:51:17.579Z,45.40
2024-04-15T01:56:19.396Z,45.17
2024-04-15T02:01:21.318Z,45.48
2024-04-15T02:06:23.166Z,45.45
2024-04-15T02:11:24.982Z,45.63
2024-04-15T02:16:26.808Z,45.73
2024-04-15T02:21:28.703Z,45.85
2024-04-15T02:26:30.518Z,45.91
2024-04-15T02:31:32.424Z,45.93
2024-04-15T02:36:34.266Z,46.15
2024-04-15T02:41:36.071Z,46.57
2024-04-15T02:46:37.967Z,46.73
2024-04-15T02:51:39.801Z,47.32
2024-04-15T02:56:43.093Z,47.89
2024-04-15T03:01:45.199Z,47.61
2024-04-15T03:06:47.073Z,47.80
2024-04-15T03:11:49.338Z,47.79
2024-04-15T03:16:51.161Z,47.49
2024-04-15T03:21:53.063Z,47.99
2024-04-15T03:26:55.527Z,48.32
2024-04-15T03:31:57.352Z,48.44
2024-04-15T03:36:59.223Z,48.35
2024-04-15T03:42:01.039Z,48.84
2024-04-15T03:47:02.906Z,48.79
2024-04-15T03:52:05.006Z,49.08
2024-04-15T03:57:06.881Z,49.49
2024-04-15T04:02:09.134Z,49.83
2024-04-15T04:07:11.080Z,49.52
2024-04-15T04:12:14.724Z,49.81
2024-04-15T04:17:18.221Z,49.99
2024-04-15T04:22:20.220Z,49.93
2024-04-15T04:27:22.375Z,50.12
2024-04-15T04:32:24.523Z,50.32
2024-04-15T04:37:26.589Z,50.68
2024-04-15T04:42:28.899Z,50.59
2024-04-15T04:47:32.991Z,50.60
2024-04-15T04:52:34.819Z,50.75
2024-04-15T04:57:37.162Z,51.13
2024-04-15T05:02:39.644Z,51.21
2024-04-15T05:07:41.685Z,51.24
2024-04-15T05:12:44.174Z,50.97
2024-04-15T05:17:46.622Z,51.32
2024-04-15T05:22:48.554Z,51.15
2024-04-15T05:27:50.605Z,50.98
2024-04-15T05:32:53.021Z,51.26
2024-04-15T05:37:54.974Z,51.14
2024-04-15T05:42:57.107Z,51.05
2024-04-15T05:47:59.183Z,51.22
2024-04-15T05:53:01.300Z,51.04
2024-04-15T05:58:03.741Z,51.25
2024-04-15T06:03:05.778Z,51.10
2024-04-15T06:08:11.266Z,51.09
2024-04-15T06:13:14.235Z,51.01
2024-04-15T06:18:16.569Z,50.88
2024-04-15T06:23:19.436Z,50.47
2024-04-15T06:28:21.728Z,50.31
2024-04-15T06:33:23.965Z,50.49
2024-04-15T06:38:26.323Z,50.06
2024-04-15T06:43:28.965Z,50.35
2024-04-15T06:48:31.571Z,50.21
2024-04-15T06:53:33.683Z,50.31
2024-04-15T06:58:35.482Z,50.52
2024-04-15T07:03:37.432Z,50.74
2024-04-15T07:08:40.503Z,50.64
2024-04-15T07:13:43.685Z,51.07
2024-04-15T07:18:45.651Z,51.35
2024-04-15T07:23:47.979Z,51.35
2024-04-15T07:28:49.949Z,51.45
2024-04-15T07:33:54.337Z,51.19
2024-04-15T07:38:58.041Z,51.20
2024-04-15T07:43:59.863Z,51.08
2024-04-15T07:49:01.757Z,51.53
2024-04-15T07:54:04.603Z,51.02
2024-04-15T07:59:06.450Z,50.98
2024-04-15T08:04:08.436Z,50.81
2024-04-15T08:09:10.471Z,50.90
2024-04-15T08:14:12.333Z,50.93
2024-04-15T08:19:14.151Z,51.07
2024-04-15T08:24:16.036Z,50.45
2024-04-15T08:29:17.873Z,50.92
2024-04-15T08:34:19.716Z,50.70
2024-04-15T08:39:21.790Z,50.28
2024-04-15T08:44:26.574Z,50.42
2024-04-15T08:49:28.680Z,50.69
2024-04-15T08:54:30.662Z,50.23
2024-04-15T08:59:33.768Z,50.22
2024-04-15T09:04:35.709Z,50.29
2024-04-15T09:09:37.621Z,50.57
2024-04-15T09:14:39.657Z,50.50
2024-04-15T09:19:46.189Z,50.47
2024-04-15T09:24:48.389Z,50.49
2024-04-15T09:29:50.187Z,50.47
2024-04-15T09:35:02.783Z,49.62
2024-04-15T09:40:05.667Z,49.59
2024-04-15T09:45:10.257Z,49.53
2024-04-15T09:50:12.170Z,49.46
2024-04-15T09:55:26.924Z,49.14
2024-04-15T10:00:30.056Z,48.80
2024-04-15T10:05:34.039Z,48.54
2024-04-15T10:10:38.348Z,47.98
2024-04-15T10:15:41.179Z,48.10
2024-04-15T10:20:44.916Z,47.68
2024-04-15T10:25:47.339Z,47.89
2024-04-15T10:30:49.573Z,47.90
2024-04-15T10:35:55.314Z,48.02
2024-04-15T10:40:57.171Z,48.32
2024-04-15T10:45:59.088Z,48.30
2024-04-15T10:51:00.962Z,48.13
2024-04-15T10:56:02.931Z,48.49
2024-04-15T11:01:05.015Z,48.57
2024-04-15T11:06:08.087Z,48.53
2024-04-15T11:11:10.788Z,48.59
2024-04-15T11:16:14.715Z,48.37
2024-04-15T11:21:17.917Z,48.17
2024-04-15T11:26:20.852Z,47.84
2024-04-15T11:31:23.068Z,47.75
2024-04-15T11:36:25.029Z,47.83
2024-04-15T11:41:27.832Z,47.78
2024-04-15T11:46:29.776Z,47.76
2024-04-15T11:51:31.697Z,47.70
2024-04-15T11:56:33.641Z,47.68
2024-04-15T12:01:35.771Z,47.75
2024-04-15T12:06:43.364Z,47.14
2024-04-15T12:11:45.379Z,46.80
2024-04-15T12:16:47.326Z,47.06
2024-04-15T12:21:49.222Z,47.28
2024-04-15T12:26:55.372Z,47.41
2024-04-15T12:31:57.426Z,47.27
2024-04-15T12:36:59.265Z,46.90
2024-04-15T12:42:01.087Z,46.96
2024-04-15T12:47:02.966Z,46.84
2024-04-15T12:52:05.018Z,46.79
2024-04-15T12:57:07.961Z,46.15
2024-04-15T13:02:10.209Z,45.72
2024-04-15T13:07:13.105Z,45.47
2024-04-15T13:12:15.089Z,45.73
2024-04-15T13:17:17.011Z,45.50
2024-04-15T13:22:19.087Z,45.29
2024-04-15T13:27:20.990Z,45.11
2024-04-15T13:32:22.834Z,45.48
2024-04-15T13:37:25.236Z,44.99
2024-04-15T13:42:27.334Z,44.54
2024-04-15T13:47:29.171Z,44.87
2024-04-15T13:52:31.014Z,44.93
2024-04-15T13:57:33.071Z,44.97
2024-04-15T14:02:34.947Z,44.63
2024-04-15T14:07:44.557Z,44.57
2024-04-15T14:12:47.023Z,44.36
2024-04-15T14:17:49.451Z,44.00
2024-04-15T14:22:51.792Z,44.13
2024-04-15T14:27:53.701Z,43.98
2024-04-15T14:32:55.800Z,43.86
2024-04-15T14:37:57.970Z,43.84
2024-04-15T14:42:59.952Z,43.55
2024-04-15T14:48:02.468Z,43.28
2024-04-15T14:53:04.654Z,43.15
2024-04-15T14:58:06.786Z,43.04
2024-04-15T15:03:09.310Z,43.09
2024-04-15T15:08:11.480Z,42.90
2024-04-15T15:13:13.608Z,43.22
2024-04-15T15:18:16.132Z,42.91
2024-04-15T15:23:18.198Z,42.96
2024-04-15T15:28:20.488Z,43.42
2024-04-15T15:33:22.775Z,42.84
2024-04-15T15:38:25.020Z,42.57
2024-04-15T15:43:28.031Z,42.70
2024-04-15T15:48:29.987Z,41.95
2024-04-15T15:53:31.960Z,39.72
2024-04-15T15:58:34.062Z,39.01
2024-04-15T16:03:36.279Z,37.36
2024-04-15T16:08:38.436Z,37.10
2024-04-15T16:13:41.133Z,37.15
2024-04-15T16:18:45.251Z,37.19
2024-04-15T16:23:47.743Z,36.82
2024-04-15T16:28:50.012Z,36.80
2024-04-15T16:33:52.420Z,35.71
2024-04-15T16:38:54.328Z,36.24
2024-04-15T16:43:57.004Z,36.59
2024-04-15T16:48:59.379Z,36.87
2024-04-15T16:54:03.092Z,36.83
2024-04-15T16:59:05.022Z,36.73
2024-04-15T17:04:07.376Z,36.73
2024-04-15T17:09:09.682Z,36.55
2024-04-15T17:14:13.496Z,36.11
2024-04-15T17:19:15.540Z,36.29
2024-04-15T17:24:17.377Z,35.35
2024-04-15T17:29:19.280Z,36.13
2024-04-15T17:34:21.219Z,37.47
2024-04-15T17:39:23.161Z,37.88
2024-04-15T17:44:24.989Z,38.14
2024-04-15T17:49:26.917Z,38.56
2024-04-15T17:54:28.772Z,38.69
2024-04-15T17:59:30.863Z,39.15
2024-04-15T18:04:33.302Z,39.27
2024-04-15T18:09:36.176Z,39.58
2024-04-15T18:14:38.142Z,39.69
2024-04-15T18:19:40.037Z,39.85
2024-04-15T18:24:41.961Z,40.07
2024-04-15T18:29:43.913Z,40.46
2024-04-15T18:34:45.732Z,40.72
2024-04-15T18:39:47.816Z,40.80
2024-04-15T18:44:52.014Z,41.08
2024-04-15T18:49:53.941Z,40.94
2024-04-15T18:54:55.849Z,41.26
2024-04-15T18:59:58.043Z,41.26
2024-04-15T19:05:00.210Z,41.16
2024-04-15T19:10:02.225Z,41.06
2024-04-15T19:15:12.820Z,40.52
2024-04-15T19:20:16.753Z,39.65
2024-04-15T19:25:18.716Z,38.80
2024-04-15T19:30:20.595Z,38.13
2024-04-15T19:35:22.517Z,38.45
2024-04-15T19:40:24.836Z,38.58
2024-04-15T19:45:26.724Z,38.36
2024-04-15T19:50:28.772Z,38.17
2024-04-15T19:55:30.664Z,37.96
2024-04-15T20:00:32.577Z,37.69
2024-04-15T20:05:34.528Z,37.47
2024-04-15T20:10:36.817Z,37.13
2024-04-15T20:15:40.705Z,36.64
2024-04-15T20:20:45.210Z,36.31
2024-04-15T20:25:47.441Z,36.20
2024-04-15T20:30:50.109Z,36.35
2024-04-15T20:35:52.017Z,36.06
2024-04-15T20:40:53.880Z,35.33
2024-04-15T20:45:55.928Z,33.77
2024-04-15T20:50:57.819Z,33.17
2024-04-15T20:55:59.793Z,36.88
2024-04-15T21:01:04.749Z,40.10
2024-04-15T21:06:07.010Z,41.49
2024-04-15T21:11:09.072Z,43.64
2024-04-15T21:16:11.054Z,44.55
2024-04-15T21:21:14.820Z,45.22
2024-04-15T21:26:16.763Z,45.63
2024-04-15T21:31:18.685Z,46.38
2024-04-15T21:36:20.602Z,48.13
2024-04-15T21:41:23.797Z,49.87
2024-04-15T21:46:25.773Z,50.86
2024-04-15T21:51:29.375Z,51.76
2024-04-15T21:56:31.217Z,52.32
2024-04-15T22:01:33.878Z,53.31
2024-04-15T22:06:36.074Z,53.48
2024-04-15T22:11:37.892Z,53.26
2024-04-15T22:16:39.736Z,53.85
2024-04-15T22:21:42.144Z,53.56
2024-04-15T22:26:44.021Z,53.33
2024-04-15T22:31:45.933Z,52.62
2024-04-15T22:36:48.143Z,52.68
2024-04-15T22:41:51.217Z,52.31
2024-04-15T22:46:53.066Z,52.48
2024-04-15T22:51:54.966Z,52.84
2024-04-15T22:57:00.594Z,52.92
2024-04-15T23:02:02.565Z,53.49
2024-04-15T23:07:04.528Z,54.14
2024-04-15T23:12:06.643Z,54.71
2024-04-15T23:17:08.521Z,55.31
2024-04-15T23:22:10.473Z,55.40
2024-04-15T23:27:13.869Z,55.18
2024-04-15T23:32:15.682Z,55.27
2024-04-15T23:37:17.521Z,55.51
2024-04-15T23:42:19.387Z,54.91
2024-04-15T23:47:40.036Z,54.37
2024-04-15T23:53:00.461Z,53.86
2024-04-15T23:58:21.143Z,53.55
